SXS596 LTFJ-LTAC
Flight info
| Callsign | SXS596 |
|---|---|
| Flight time | 0h 31m |
| Altitude | 27000 |
| Route | VICEN UT380 ASMAP UL333 LATGA |
| Aircraft | B738/M-SDE2E3FGHIRWXY/LB1 |
Departure
| Time | 2026-04-29 20:26 |
|---|---|
| Airport | Istanbul Sabiha Gökçen International Airport (LTFJ) |
Arrival
| Time | 2026-04-29 20:57 |
|---|---|
| Airport | Esenboğa International Airport (LTAC) |
| Time | Latitude | Longitude | Altitude | Speed | Heading |
|---|---|---|---|---|---|
| 2026-04-29 19:51 | 40.90713 | 29.31849 | 319 ft | 0 kts | 334° |
| 2026-04-29 20:15 | 40.90710 | 29.31852 | 320 ft | 3 kts | 334° |
| 2026-04-29 20:15 | 40.90686 | 29.31867 | 320 ft | 4 kts | 334° |
| 2026-04-29 20:16 | 40.90662 | 29.31883 | 318 ft | 4 kts | 327° |
| 2026-04-29 20:16 | 40.90642 | 29.31906 | 319 ft | 4 kts | 303° |
| 2026-04-29 20:16 | 40.90634 | 29.31935 | 317 ft | 4 kts | 253° |
| 2026-04-29 20:16 | 40.90638 | 29.31949 | 317 ft | 1 kts | 243° |
| 2026-04-29 20:17 | 40.90639 | 29.31950 | 317 ft | 0 kts | 243° |
| 2026-04-29 20:20 | 40.90623 | 29.31936 | 318 ft | 6 kts | 199° |
| 2026-04-29 20:21 | 40.90557 | 29.31956 | 320 ft | 13 kts | 155° |
| 2026-04-29 20:21 | 40.90470 | 29.31984 | 320 ft | 13 kts | 204° |
| 2026-04-29 20:21 | 40.90420 | 29.31883 | 320 ft | 15 kts | 244° |
| 2026-04-29 20:21 | 40.90368 | 29.31742 | 320 ft | 20 kts | 244° |
| 2026-04-29 20:22 | 40.90301 | 29.31561 | 320 ft | 24 kts | 244° |
| 2026-04-29 20:22 | 40.90221 | 29.31344 | 319 ft | 28 kts | 244° |
| 2026-04-29 20:22 | 40.90136 | 29.31113 | 319 ft | 27 kts | 244° |
| 2026-04-29 20:22 | 40.90056 | 29.30895 | 320 ft | 25 kts | 244° |
| 2026-04-29 20:23 | 40.89981 | 29.30691 | 318 ft | 24 kts | 244° |
| 2026-04-29 20:23 | 40.89904 | 29.30481 | 319 ft | 27 kts | 244° |
| 2026-04-29 20:23 | 40.89819 | 29.30249 | 319 ft | 29 kts | 244° |
| 2026-04-29 20:23 | 40.89732 | 29.30012 | 320 ft | 28 kts | 244° |
| 2026-04-29 20:24 | 40.89649 | 29.29789 | 320 ft | 26 kts | 244° |
| 2026-04-29 20:24 | 40.89573 | 29.29579 | 320 ft | 24 kts | 244° |
| 2026-04-29 20:24 | 40.89501 | 29.29385 | 319 ft | 22 kts | 244° |
| 2026-04-29 20:24 | 40.89439 | 29.29261 | 320 ft | 15 kts | 210° |
| 2026-04-29 20:25 | 40.89347 | 29.29285 | 319 ft | 14 kts | 152° |
| 2026-04-29 20:25 | 40.89284 | 29.29344 | 321 ft | 9 kts | 115° |
| 2026-04-29 20:25 | 40.89316 | 29.29454 | 321 ft | 30 kts | 64° |
| 2026-04-29 20:25 | 40.89520 | 29.30007 | 320 ft | 102 kts | 64° |
| 2026-04-29 20:26 | 40.89922 | 29.31095 | 318 ft | 160 kts | 63° |
| 2026-04-29 20:26 | 40.90441 | 29.32513 | 843 ft | 170 kts | 63° |
| 2026-04-29 20:26 | 40.90953 | 29.33913 | 1764 ft | 169 kts | 66° |
| 2026-04-29 20:26 | 40.91471 | 29.35359 | 2417 ft | 185 kts | 65° |
| 2026-04-29 20:27 | 40.92074 | 29.37021 | 2691 ft | 212 kts | 64° |
| 2026-04-29 20:27 | 40.92294 | 29.37623 | 2784 ft | 220 kts | 65° |
| 2026-04-29 20:27 | 40.93215 | 29.40949 | 3523 ft | 243 kts | 64° |
| 2026-04-29 20:27 | 40.93690 | 29.43146 | 4171 ft | 255 kts | 83° |
| 2026-04-29 20:28 | 40.93524 | 29.45523 | 4899 ft | 266 kts | 103° |
| 2026-04-29 20:28 | 40.93024 | 29.47922 | 5636 ft | 274 kts | 105° |
| 2026-04-29 20:28 | 40.92482 | 29.50336 | 6450 ft | 279 kts | 106° |
| 2026-04-29 20:28 | 40.91920 | 29.52815 | 7230 ft | 284 kts | 105° |
| 2026-04-29 20:29 | 40.91351 | 29.55341 | 8005 ft | 290 kts | 105° |
| 2026-04-29 20:29 | 40.90773 | 29.57931 | 8754 ft | 296 kts | 105° |
| 2026-04-29 20:29 | 40.90190 | 29.60565 | 9516 ft | 302 kts | 105° |
| 2026-04-29 20:29 | 40.89598 | 29.63249 | 10248 ft | 308 kts | 105° |
| 2026-04-29 20:30 | 40.89195 | 29.65087 | 10493 ft | 321 kts | 105° |
| 2026-04-29 20:30 | 40.88550 | 29.68039 | 10679 ft | 346 kts | 105° |
| 2026-04-29 20:30 | 40.87859 | 29.71202 | 10860 ft | 369 kts | 105° |
| 2026-04-29 20:30 | 40.87127 | 29.74553 | 11035 ft | 390 kts | 105° |
| 2026-04-29 20:31 | 40.86357 | 29.78070 | 11353 ft | 404 kts | 105° |
| 2026-04-29 20:31 | 40.85569 | 29.81665 | 11952 ft | 410 kts | 106° |
| 2026-04-29 20:31 | 40.84771 | 29.85302 | 12649 ft | 412 kts | 106° |
| 2026-04-29 20:31 | 40.83968 | 29.88955 | 13309 ft | 416 kts | 106° |
| 2026-04-29 20:32 | 40.83155 | 29.92651 | 13941 ft | 420 kts | 107° |
| 2026-04-29 20:32 | 40.82333 | 29.96381 | 14496 ft | 425 kts | 107° |
| 2026-04-29 20:32 | 40.81505 | 30.00135 | 15049 ft | 429 kts | 107° |
| 2026-04-29 20:32 | 40.80666 | 30.03934 | 15605 ft | 433 kts | 107° |
| 2026-04-29 20:33 | 40.79818 | 30.07767 | 16135 ft | 437 kts | 107° |
| 2026-04-29 20:33 | 40.78960 | 30.11634 | 16675 ft | 441 kts | 107° |
| 2026-04-29 20:33 | 40.78093 | 30.15539 | 17191 ft | 445 kts | 107° |
| 2026-04-29 20:33 | 40.77216 | 30.19482 | 17709 ft | 449 kts | 107° |
| 2026-04-29 20:34 | 40.76324 | 30.23449 | 18229 ft | 453 kts | 108° |
| 2026-04-29 20:34 | 40.75320 | 30.27339 | 18688 ft | 457 kts | 110° |
| 2026-04-29 20:34 | 40.74203 | 30.31273 | 19149 ft | 459 kts | 111° |
| 2026-04-29 20:34 | 40.73041 | 30.35218 | 19631 ft | 462 kts | 112° |
| 2026-04-29 20:35 | 40.71869 | 30.39176 | 20100 ft | 464 kts | 112° |
| 2026-04-29 20:35 | 40.70698 | 30.43156 | 20545 ft | 467 kts | 111° |
| 2026-04-29 20:35 | 40.69532 | 30.47157 | 20973 ft | 470 kts | 111° |
| 2026-04-29 20:35 | 40.68365 | 30.51190 | 21395 ft | 472 kts | 111° |
| 2026-04-29 20:36 | 40.67196 | 30.55251 | 21813 ft | 475 kts | 111° |
| 2026-04-29 20:36 | 40.66024 | 30.59331 | 22219 ft | 478 kts | 111° |
| 2026-04-29 20:36 | 40.64846 | 30.63429 | 22622 ft | 480 kts | 111° |
| 2026-04-29 20:36 | 40.63657 | 30.67562 | 23004 ft | 483 kts | 111° |
| 2026-04-29 20:37 | 40.62458 | 30.71722 | 23390 ft | 486 kts | 111° |
| 2026-04-29 20:37 | 40.61255 | 30.75887 | 23762 ft | 488 kts | 111° |
| 2026-04-29 20:37 | 40.60043 | 30.80075 | 24055 ft | 491 kts | 111° |
| 2026-04-29 20:37 | 40.58839 | 30.84229 | 24344 ft | 494 kts | 111° |
| 2026-04-29 20:38 | 40.57611 | 30.88455 | 24633 ft | 496 kts | 111° |
| 2026-04-29 20:38 | 40.56375 | 30.92704 | 24919 ft | 499 kts | 111° |
| 2026-04-29 20:38 | 40.55131 | 30.96972 | 25152 ft | 501 kts | 111° |
| 2026-04-29 20:38 | 40.53876 | 31.01271 | 25144 ft | 505 kts | 111° |
| 2026-04-29 20:39 | 40.52612 | 31.05595 | 25163 ft | 509 kts | 111° |
| 2026-04-29 20:39 | 40.51338 | 31.09945 | 25155 ft | 509 kts | 111° |
| 2026-04-29 20:39 | 40.50064 | 31.14290 | 25147 ft | 508 kts | 111° |
| 2026-04-29 20:39 | 40.48790 | 31.18628 | 25144 ft | 507 kts | 111° |
| 2026-04-29 20:40 | 40.47523 | 31.22935 | 25136 ft | 504 kts | 111° |
| 2026-04-29 20:40 | 40.46261 | 31.27215 | 24889 ft | 498 kts | 111° |
| 2026-04-29 20:40 | 40.45014 | 31.31440 | 24653 ft | 495 kts | 111° |
| 2026-04-29 20:40 | 40.43769 | 31.35650 | 24419 ft | 495 kts | 111° |
| 2026-04-29 20:41 | 40.42524 | 31.39853 | 24188 ft | 494 kts | 111° |
| 2026-04-29 20:41 | 40.41279 | 31.44048 | 23963 ft | 492 kts | 111° |
| 2026-04-29 20:41 | 40.40037 | 31.48227 | 23669 ft | 489 kts | 111° |
| 2026-04-29 20:41 | 40.38817 | 31.52328 | 22922 ft | 477 kts | 111° |
| 2026-04-29 20:42 | 40.37643 | 31.56271 | 22304 ft | 463 kts | 112° |
| 2026-04-29 20:42 | 40.36483 | 31.60158 | 21662 ft | 453 kts | 112° |
| 2026-04-29 20:42 | 40.35343 | 31.63971 | 21041 ft | 444 kts | 112° |
| 2026-04-29 20:42 | 40.34227 | 31.67700 | 20423 ft | 436 kts | 112° |
| 2026-04-29 20:43 | 40.33116 | 31.71406 | 19832 ft | 438 kts | 112° |
| 2026-04-29 20:43 | 40.31978 | 31.75190 | 19242 ft | 455 kts | 112° |
| 2026-04-29 20:43 | 40.30815 | 31.79057 | 18561 ft | 453 kts | 112° |
| 2026-04-29 20:43 | 40.29671 | 31.82858 | 17863 ft | 443 kts | 112° |
| 2026-04-29 20:44 | 40.28552 | 31.86574 | 17199 ft | 432 kts | 112° |
| 2026-04-29 20:44 | 40.27468 | 31.90167 | 16589 ft | 422 kts | 112° |
| 2026-04-29 20:44 | 40.26397 | 31.93709 | 15985 ft | 415 kts | 112° |
| 2026-04-29 20:44 | 40.25344 | 31.97192 | 15401 ft | 408 kts | 112° |
| 2026-04-29 20:45 | 40.24298 | 32.00641 | 14823 ft | 409 kts | 112° |
| 2026-04-29 20:45 | 40.23230 | 32.04155 | 14259 ft | 420 kts | 112° |
| 2026-04-29 20:45 | 40.22150 | 32.07707 | 13600 ft | 417 kts | 112° |
| 2026-04-29 20:45 | 40.21092 | 32.11185 | 12948 ft | 406 kts | 112° |
| 2026-04-29 20:46 | 40.20073 | 32.14532 | 12342 ft | 396 kts | 112° |
| 2026-04-29 20:46 | 40.19067 | 32.17831 | 11765 ft | 386 kts | 112° |
| 2026-04-29 20:46 | 40.18082 | 32.21055 | 11376 ft | 375 kts | 112° |
| 2026-04-29 20:46 | 40.17134 | 32.24157 | 11189 ft | 361 kts | 112° |
| 2026-04-29 20:47 | 40.16212 | 32.27172 | 11012 ft | 355 kts | 112° |
| 2026-04-29 20:47 | 40.15288 | 32.30182 | 10864 ft | 355 kts | 112° |
| 2026-04-29 20:47 | 40.14388 | 32.33118 | 10691 ft | 340 kts | 112° |
| 2026-04-29 20:47 | 40.13525 | 32.35929 | 10543 ft | 325 kts | 112° |
| 2026-04-29 20:48 | 40.12700 | 32.38613 | 10401 ft | 311 kts | 112° |
| 2026-04-29 20:48 | 40.11910 | 32.41181 | 10263 ft | 296 kts | 112° |
| 2026-04-29 20:48 | 40.11175 | 32.43569 | 10137 ft | 273 kts | 112° |
| 2026-04-29 20:48 | 40.10487 | 32.45802 | 10034 ft | 258 kts | 112° |
| 2026-04-29 20:49 | 40.09867 | 32.47807 | 9931 ft | 264 kts | 112° |
| 2026-04-29 20:49 | 40.09179 | 32.50035 | 9658 ft | 264 kts | 112° |
| 2026-04-29 20:49 | 40.08495 | 32.52247 | 9399 ft | 263 kts | 112° |
| 2026-04-29 20:49 | 40.07810 | 32.54461 | 9115 ft | 263 kts | 112° |
| 2026-04-29 20:50 | 40.07126 | 32.56672 | 8834 ft | 262 kts | 112° |
| 2026-04-29 20:50 | 40.06444 | 32.58874 | 8565 ft | 261 kts | 112° |
| 2026-04-29 20:50 | 40.05765 | 32.61062 | 8310 ft | 260 kts | 112° |
| 2026-04-29 20:50 | 40.05090 | 32.63239 | 8048 ft | 256 kts | 112° |
| 2026-04-29 20:51 | 40.04424 | 32.65383 | 7809 ft | 254 kts | 112° |
| 2026-04-29 20:51 | 40.03760 | 32.67521 | 7584 ft | 254 kts | 112° |
| 2026-04-29 20:51 | 40.03100 | 32.69645 | 7343 ft | 248 kts | 112° |
| 2026-04-29 20:51 | 40.02470 | 32.71669 | 7085 ft | 232 kts | 112° |
| 2026-04-29 20:52 | 40.01886 | 32.73548 | 6826 ft | 216 kts | 113° |
| 2026-04-29 20:52 | 40.01336 | 32.75314 | 6584 ft | 205 kts | 113° |
| 2026-04-29 20:52 | 40.00819 | 32.76975 | 6420 ft | 198 kts | 113° |
| 2026-04-29 20:52 | 40.00293 | 32.78657 | 6299 ft | 202 kts | 113° |
| 2026-04-29 20:53 | 39.99757 | 32.80372 | 6129 ft | 205 kts | 112° |
| 2026-04-29 20:53 | 39.99220 | 32.82088 | 5953 ft | 203 kts | 112° |
| 2026-04-29 20:53 | 39.98717 | 32.83793 | 5756 ft | 200 kts | 103° |
| 2026-04-29 20:53 | 39.98899 | 32.85538 | 5625 ft | 200 kts | 56° |
| 2026-04-29 20:54 | 40.00854 | 32.88086 | 5607 ft | 197 kts | 41° |
| 2026-04-29 20:54 | 40.01881 | 32.89186 | 5469 ft | 183 kts | 36° |
| 2026-04-29 20:54 | 40.02865 | 32.90143 | 5234 ft | 171 kts | 35° |
| 2026-04-29 20:55 | 40.03804 | 32.91040 | 5025 ft | 168 kts | 36° |
| 2026-04-29 20:55 | 40.04739 | 32.91949 | 4796 ft | 168 kts | 37° |
| 2026-04-29 20:55 | 40.05669 | 32.92879 | 4542 ft | 168 kts | 36° |
| 2026-04-29 20:55 | 40.06618 | 32.93756 | 4330 ft | 166 kts | 36° |
| 2026-04-29 20:56 | 40.07550 | 32.94646 | 4097 ft | 166 kts | 35° |
| 2026-04-29 20:56 | 40.08483 | 32.95530 | 3834 ft | 165 kts | 36° |
| 2026-04-29 20:56 | 40.09416 | 32.96413 | 3614 ft | 164 kts | 36° |
| 2026-04-29 20:56 | 40.10331 | 32.97290 | 3404 ft | 163 kts | 36° |
| 2026-04-29 20:57 | 40.11242 | 32.98161 | 3199 ft | 161 kts | 36° |
| 2026-04-29 20:57 | 40.12125 | 32.99005 | 3115 ft | 144 kts | 36° |
| 2026-04-29 20:57 | 40.12758 | 32.99610 | 3122 ft | 73 kts | 36° |
| 2026-04-29 20:57 | 40.12998 | 32.99873 | 3124 ft | 37 kts | 56° |
| 2026-04-29 20:58 | 40.13083 | 33.00089 | 3124 ft | 13 kts | 66° |
| 2026-04-29 20:58 | 40.13054 | 33.00177 | 3125 ft | 13 kts | 174° |
| 2026-04-29 20:58 | 40.12975 | 33.00122 | 3124 ft | 16 kts | 216° |
| 2026-04-29 20:58 | 40.12863 | 33.00014 | 3123 ft | 24 kts | 216° |
| 2026-04-29 20:59 | 40.12720 | 32.99878 | 3122 ft | 25 kts | 216° |
| 2026-04-29 20:59 | 40.12582 | 32.99746 | 3121 ft | 24 kts | 216° |
| 2026-04-29 20:59 | 40.12451 | 32.99620 | 3120 ft | 24 kts | 216° |
| 2026-04-29 20:59 | 40.12305 | 32.99481 | 3118 ft | 28 kts | 216° |
| 2026-04-29 21:00 | 40.12143 | 32.99325 | 3116 ft | 29 kts | 216° |
| 2026-04-29 21:00 | 40.11986 | 32.99175 | 3114 ft | 27 kts | 216° |
| 2026-04-29 21:00 | 40.11871 | 32.99066 | 3113 ft | 13 kts | 216° |
| 2026-04-29 21:00 | 40.11793 | 32.99064 | 3112 ft | 12 kts | 134° |
| 2026-04-29 21:01 | 40.11723 | 32.99124 | 3112 ft | 12 kts | 171° |
| 2026-04-29 21:01 | 40.11658 | 32.99069 | 3112 ft | 12 kts | 236° |
| 2026-04-29 21:01 | 40.11619 | 32.98999 | 3112 ft | 8 kts | 224° |
| 2026-04-29 21:01 | 40.11574 | 32.99014 | 3112 ft | 6 kts | 138° |
| 2026-04-29 21:02 | 40.11556 | 32.99034 | 3112 ft | 1 kts | 137° |